createdAt,value
2023-01-11T00:00:32.649Z,16.60
2023-01-11T00:03:02.747Z,9.43
2023-01-11T00:05:30.585Z,4.40
2023-01-11T00:07:58.834Z,7.55
2023-01-11T00:10:26.711Z,5.38
2023-01-11T00:12:54.460Z,7.93
2023-01-11T00:15:22.067Z,6.20
2023-01-11T00:17:49.595Z,8.30
2023-01-11T00:20:17.827Z,9.80
2023-01-11T00:22:45.369Z,13.93
2023-01-11T00:25:12.943Z,10.70
2023-01-11T00:27:40.500Z,12.20
2023-01-11T00:30:08.933Z,11.45
2023-01-11T00:32:36.476Z,8.07
2023-01-11T00:35:04.496Z,11.73
2023-01-11T00:37:32.028Z,11.00
2023-01-11T00:39:59.943Z,13.02
2023-01-11T00:42:45.943Z,14.23
2023-01-11T00:45:32.126Z,12.25
2023-01-11T00:48:05.997Z,8.98
2023-01-11T00:50:38.838Z,10.03
2023-01-11T00:53:07.902Z,12.70
2023-01-11T00:55:36.634Z,11.45
2023-01-11T00:58:04.634Z,13.90
2023-01-11T01:00:32.273Z,11.63
2023-01-11T01:02:59.841Z,14.93
2023-01-11T01:05:27.696Z,9.43
2023-01-11T01:07:55.338Z,19.55
2023-01-11T01:10:23.025Z,12.90
2023-01-11T01:13:09.238Z,14.80
2023-01-11T01:15:36.860Z,12.63
2023-01-11T01:18:04.511Z,10.63
2023-01-11T01:20:32.179Z,5.38
2023-01-11T01:23:00.291Z,10.95
2023-01-11T01:25:27.874Z,11.25
2023-01-11T01:27:55.410Z,13.43
2023-01-11T01:30:22.928Z,11.85
2023-01-11T01:32:50.472Z,10.77
2023-01-11T01:35:18.134Z,11.10
2023-01-11T01:37:45.649Z,7.40
2023-01-11T01:40:13.661Z,13.37
2023-01-11T01:42:41.276Z,16.50
2023-01-11T01:45:23.818Z,17.80
2023-01-11T01:48:14.857Z,7.10
2023-01-11T01:50:52.945Z,9.55
2023-01-11T01:53:29.737Z,6.37
2023-01-11T01:56:00.066Z,7.95
2023-01-11T01:58:34.648Z,7.93
2023-01-11T02:01:22.918Z,7.05
2023-01-11T02:03:52.508Z,9.95
2023-01-11T02:06:22.734Z,15.97
2023-01-11T02:08:59.082Z,12.82
2023-01-11T02:11:30.075Z,13.65
2023-01-11T02:14:11.546Z,13.55
2023-01-11T02:16:39.212Z,12.50
2023-01-11T02:19:14.164Z,10.50
2023-01-11T02:21:44.875Z,10.52
2023-01-11T02:24:27.713Z,9.02
2023-01-11T02:27:16.862Z,13.50
2023-01-11T02:30:03.001Z,10.10
2023-01-11T02:32:49.857Z,13.17
2023-01-11T02:35:42.923Z,12.50
2023-01-11T02:38:10.431Z,11.40
2023-01-11T02:40:51.039Z,10.35
2023-01-11T02:43:50.368Z,12.75
2023-01-11T02:46:30.524Z,10.77
2023-01-11T02:49:36.979Z,11.02
2023-01-11T02:52:19.201Z,10.02
2023-01-11T02:54:54.130Z,14.77
2023-01-11T02:57:23.033Z,9.23
2023-01-11T02:59:51.223Z,10.23
2023-01-11T03:02:18.893Z,9.23
2023-01-11T03:04:46.422Z,15.48
2023-01-11T03:07:35.441Z,10.05
2023-01-11T03:10:18.764Z,9.55
2023-01-11T03:13:11.086Z,10.83
2023-01-11T03:15:47.950Z,10.10
2023-01-11T03:18:30.387Z,11.48
2023-01-11T03:21:06.996Z,8.93
2023-01-11T03:23:39.169Z,11.27
2023-01-11T03:26:36.219Z,13.93
2023-01-11T03:29:22.452Z,9.05
2023-01-11T03:32:29.316Z,8.30
2023-01-11T03:35:38.373Z,9.27
2023-01-11T03:38:27.885Z,8.95
2023-01-11T03:41:05.600Z,7.80
2023-01-11T03:43:37.548Z,5.20
2023-01-11T03:46:10.004Z,5.80
2023-01-11T03:49:01.132Z,8.40
2023-01-11T03:51:32.243Z,8.00
2023-01-11T03:54:03.478Z,9.53
2023-01-11T03:56:40.274Z,9.07
2023-01-11T03:59:07.935Z,5.10
2023-01-11T04:01:37.142Z,10.60
2023-01-11T04:04:04.726Z,12.15
2023-01-11T04:06:36.083Z,11.23
2023-01-11T04:09:04.575Z,8.30
2023-01-11T04:11:32.188Z,11.63
2023-01-11T04:14:00.933Z,5.38
2023-01-11T04:16:28.677Z,3.80
2023-01-11T04:18:56.475Z,3.47
2023-01-11T04:21:24.012Z,4.20
2023-01-11T04:23:52.529Z,6.45
2023-01-11T04:26:20.134Z,8.40
2023-01-11T04:28:47.688Z,8.73
2023-01-11T04:31:15.273Z,12.50
2023-01-11T04:33:42.899Z,10.15
2023-01-11T04:36:11.589Z,10.45
2023-01-11T04:38:39.283Z,11.18
2023-01-11T04:41:25.319Z,10.00
2023-01-11T04:43:56.671Z,9.23
2023-01-11T04:46:24.646Z,12.93
2023-01-11T04:48:52.536Z,13.13
2023-01-11T04:51:20.335Z,13.73
2023-01-11T04:53:49.310Z,7.93
2023-01-11T04:56:17.771Z,12.37
2023-01-11T04:58:45.974Z,8.52
2023-01-11T05:01:18.777Z,12.50
2023-01-11T05:03:46.996Z,11.75
2023-01-11T05:06:15.338Z,12.48
2023-01-11T05:08:47.318Z,18.03
2023-01-11T05:11:18.259Z,10.80
2023-01-11T05:13:45.922Z,11.68
2023-01-11T05:16:15.079Z,6.78
2023-01-11T05:18:50.414Z,8.30
2023-01-11T05:21:21.029Z,11.93
2023-01-11T05:23:49.198Z,10.23
2023-01-11T05:26:20.104Z,11.13
2023-01-11T05:28:47.708Z,12.63
2023-01-11T05:31:16.285Z,10.90
2023-01-11T05:33:43.859Z,8.83
2023-01-11T05:36:21.688Z,7.68
2023-01-11T05:38:51.269Z,11.80
2023-01-11T05:41:21.075Z,8.82
2023-01-11T05:44:08.725Z,13.52
2023-01-11T05:46:38.477Z,8.70
2023-01-11T05:49:07.376Z,11.48
2023-01-11T05:51:35.281Z,11.40
2023-01-11T05:54:04.873Z,9.70
2023-01-11T05:56:32.656Z,9.23
2023-01-11T05:59:00.205Z,10.80
2023-01-11T06:01:27.847Z,9.27
2023-01-11T06:03:55.388Z,9.90
2023-01-11T06:06:23.670Z,9.40
2023-01-11T06:08:51.330Z,6.13
2023-01-11T06:11:19.235Z,10.53
2023-01-11T06:13:46.887Z,6.03
2023-01-11T06:16:19.999Z,10.52
2023-01-11T06:18:49.948Z,9.93
2023-01-11T06:21:18.525Z,11.90
2023-01-11T06:23:48.429Z,9.60
2023-01-11T06:26:18.566Z,12.48
2023-01-11T06:28:47.303Z,11.05
2023-01-11T06:31:17.145Z,8.77
2023-01-11T06:33:46.276Z,12.05
2023-01-11T06:36:15.444Z,4.70
2023-01-11T06:38:44.235Z,12.13
2023-01-11T06:41:12.981Z,13.75
2023-01-11T06:43:42.066Z,13.30
2023-01-11T06:46:12.718Z,9.32
2023-01-11T06:48:40.620Z,12.67
2023-01-11T06:51:11.046Z,8.25
2023-01-11T06:53:39.312Z,17.98
2023-01-11T06:56:07.586Z,12.77
2023-01-11T06:58:35.155Z,10.48
2023-01-11T07:01:03.144Z,19.23
2023-01-11T07:03:31.166Z,14.27
2023-01-11T07:05:58.889Z,11.50
2023-01-11T07:08:26.989Z,16.27
2023-01-11T07:10:55.000Z,14.75
2023-01-11T07:13:23.253Z,10.30
2023-01-11T07:15:51.886Z,10.68
2023-01-11T07:18:20.163Z,12.02
2023-01-11T07:20:47.828Z,16.52
2023-01-11T07:23:15.561Z,17.95
2023-01-11T07:25:43.101Z,18.40
2023-01-11T07:28:10.764Z,14.20
2023-01-11T07:30:56.119Z,13.30
2023-01-11T07:33:25.560Z,14.93
2023-01-11T07:35:54.048Z,15.02
2023-01-11T07:38:22.322Z,11.93
2023-01-11T07:40:50.107Z,12.90
2023-01-11T07:43:23.316Z,13.65
2023-01-11T07:45:52.812Z,11.82
2023-01-11T07:48:27.174Z,9.68
2023-01-11T07:50:55.477Z,9.07
2023-01-11T07:53:26.100Z,12.85
2023-01-11T07:55:56.704Z,18.48
2023-01-11T07:58:24.388Z,13.02
2023-01-11T08:00:52.104Z,14.80
2023-01-11T08:03:19.817Z,13.17
2023-01-11T08:05:51.752Z,17.65
2023-01-11T08:08:19.385Z,8.43
2023-01-11T08:10:46.953Z,10.40
2023-01-11T08:13:33.265Z,13.85
2023-01-11T08:16:00.912Z,11.77
2023-01-11T08:18:28.514Z,10.93
2023-01-11T08:20:56.221Z,15.77
2023-01-11T08:23:23.835Z,11.32
2023-01-11T08:25:56.652Z,7.88
2023-01-11T08:28:24.371Z,16.73
2023-01-11T08:30:52.112Z,12.75
2023-01-11T08:33:19.846Z,12.50
2023-01-11T08:35:47.489Z,14.18
2023-01-11T08:38:15.247Z,12.10
2023-01-11T08:40:42.812Z,14.87
2023-01-11T08:43:10.368Z,15.32
2023-01-11T08:45:37.985Z,9.80
2023-01-11T08:48:05.789Z,15.02
2023-01-11T08:50:33.374Z,14.65
2023-01-11T08:53:00.973Z,15.87
2023-01-11T08:55:30.814Z,13.68
2023-01-11T08:57:58.463Z,10.93
2023-01-11T09:00:26.083Z,16.08
2023-01-11T09:02:53.796Z,12.77
2023-01-11T09:05:21.405Z,12.43
2023-01-11T09:07:49.057Z,11.15
2023-01-11T09:10:16.924Z,11.23
2023-01-11T09:12:46.065Z,17.38
2023-01-11T09:15:13.791Z,12.88
2023-01-11T09:17:41.365Z,7.80
2023-01-11T09:20:09.862Z,15.88
2023-01-11T09:22:37.648Z,15.65
2023-01-11T09:25:06.004Z,10.05
2023-01-11T09:27:33.575Z,13.77
2023-01-11T09:30:02.745Z,15.93
2023-01-11T09:32:30.623Z,9.70
2023-01-11T09:34:59.858Z,12.98
2023-01-11T09:37:27.608Z,11.18
2023-01-11T09:39:55.334Z,11.32
2023-01-11T09:42:31.565Z,11.20
2023-01-11T09:45:07.741Z,13.40
2023-01-11T09:48:11.789Z,13.65
2023-01-11T09:50:45.797Z,17.40
2023-01-11T09:53:27.356Z,7.53
2023-01-11T09:55:58.607Z,12.43
2023-01-11T09:59:03.239Z,9.35
2023-01-11T10:01:40.391Z,5.38
2023-01-11T10:04:37.471Z,6.00
2023-01-11T10:07:33.928Z,7.25
2023-01-11T10:18:37.851Z,8.45
2023-01-11T10:19:42.485Z,6.72
2023-01-11T10:22:33.763Z,10.98
2023-01-11T10:25:11.718Z,6.70
2023-01-11T10:27:43.180Z,12.48
2023-01-11T10:30:35.897Z,8.57
2023-01-11T10:33:13.778Z,10.77
2023-01-11T10:36:05.793Z,14.60
2023-01-11T10:38:56.895Z,9.63
2023-01-11T10:41:37.713Z,8.95
2023-01-11T10:44:27.115Z,13.10
2023-01-11T10:46:57.635Z,14.65
2023-01-11T10:50:00.985Z,10.32
2023-01-11T10:52:41.221Z,9.47
2023-01-11T10:55:21.499Z,10.77
2023-01-11T10:58:18.857Z,6.80
2023-01-11T11:01:18.852Z,10.73
2023-01-11T11:04:24.079Z,11.88
2023-01-11T11:07:12.955Z,9.20
2023-01-11T11:09:55.620Z,10.55
2023-01-11T11:12:28.494Z,10.80
2023-01-11T11:15:20.050Z,8.45
2023-01-11T11:17:51.293Z,7.80
2023-01-11T11:20:29.938Z,8.63
2023-01-11T11:22:58.004Z,8.20
2023-01-11T11:25:56.300Z,10.52
2023-01-11T11:28:25.624Z,12.25
2023-01-11T11:30:56.232Z,15.68
2023-01-11T11:33:28.177Z,12.20
2023-01-11T11:36:08.934Z,7.43
2023-01-11T11:39:02.995Z,11.10
2023-01-11T11:41:47.507Z,11.02
2023-01-11T11:44:27.152Z,9.30
2023-01-11T11:46:57.926Z,9.03
2023-01-11T11:49:26.107Z,11.88
2023-01-11T11:51:54.922Z,7.82
2023-01-11T11:54:28.294Z,12.15
2023-01-11T11:56:58.428Z,14.90
2023-01-11T11:59:29.940Z,9.10
2023-01-11T12:02:06.373Z,11.48
2023-01-11T12:04:56.718Z,11.05
2023-01-11T12:07:28.888Z,9.77
2023-01-11T12:10:01.272Z,7.22
2023-01-11T12:12:32.145Z,11.37
2023-01-11T12:15:15.101Z,6.15
2023-01-11T12:17:43.622Z,8.77
2023-01-11T12:20:33.102Z,8.65
2023-01-11T12:23:26.478Z,10.13
2023-01-11T12:26:32.735Z,12.47
2023-01-11T12:29:22.095Z,10.13
2023-01-11T12:32:08.133Z,9.23
2023-01-11T12:34:41.324Z,10.20
2023-01-11T12:37:33.617Z,11.48
2023-01-11T12:40:40.184Z,10.20
2023-01-11T12:43:29.308Z,8.85
2023-01-11T12:46:07.681Z,8.52
2023-01-11T12:48:55.707Z,8.80
2023-01-11T12:51:29.922Z,8.60
2023-01-11T12:54:37.507Z,10.17
2023-01-11T12:57:26.970Z,8.82
2023-01-11T13:00:17.840Z,7.75
2023-01-11T13:03:18.517Z,9.52
2023-01-11T13:05:55.156Z,8.95
2023-01-11T13:08:40.829Z,7.80
2023-01-11T13:11:45.965Z,9.77
2023-01-11T13:14:39.725Z,10.00
2023-01-11T13:17:10.401Z,13.30
2023-01-11T13:20:10.003Z,10.20
2023-01-11T13:22:42.384Z,11.43
2023-01-11T13:25:21.764Z,10.18
2023-01-11T13:27:51.183Z,9.52
2023-01-11T13:30:20.269Z,9.13
2023-01-11T13:32:54.906Z,8.23
2023-01-11T13:35:35.034Z,11.63
2023-01-11T13:38:36.677Z,10.30
2023-01-11T13:41:23.909Z,10.63
2023-01-11T13:43:56.528Z,6.72
2023-01-11T13:46:36.012Z,9.25
2023-01-11T13:49:29.194Z,6.93
2023-01-11T13:52:00.248Z,6.68
2023-01-11T13:54:41.767Z,6.40
2023-01-11T13:57:40.089Z,9.55
2023-01-11T14:00:23.634Z,7.68
2023-01-11T14:03:03.475Z,3.83
2023-01-11T14:05:41.048Z,7.97
2023-01-11T14:08:35.281Z,6.28
2023-01-11T14:11:12.923Z,3.55
2023-01-11T14:14:07.958Z,4.45
2023-01-11T14:17:13.826Z,5.60
2023-01-11T14:19:53.796Z,7.05
2023-01-11T14:22:49.989Z,6.40
2023-01-11T14:25:27.548Z,4.22
2023-01-11T14:28:13.519Z,7.60
2023-01-11T14:31:10.524Z,4.13
2023-01-11T14:33:55.751Z,5.57
2023-01-11T14:36:44.024Z,9.40
2023-01-11T14:39:33.226Z,5.68
2023-01-11T14:42:12.153Z,6.30
2023-01-11T14:45:06.056Z,17.50
2023-01-11T14:47:53.030Z,7.47
2023-01-11T14:50:26.803Z,5.50
2023-01-11T14:53:01.070Z,7.18
2023-01-11T14:55:35.373Z,5.72
2023-01-11T14:58:17.682Z,12.13
2023-01-11T15:00:45.209Z,7.57
2023-01-11T15:03:12.708Z,11.50
2023-01-11T15:05:52.520Z,6.82
2023-01-11T15:08:27.849Z,5.57
2023-01-11T15:11:01.564Z,7.90
2023-01-11T15:13:36.462Z,7.32
2023-01-11T15:16:29.500Z,12.70
2023-01-11T15:19:04.930Z,10.63
2023-01-11T15:21:40.898Z,6.72
2023-01-11T15:24:23.856Z,17.83
2023-01-11T15:26:52.052Z,13.15
2023-01-11T15:29:50.714Z,15.90
2023-01-11T15:32:26.499Z,10.35
2023-01-11T15:34:54.623Z,8.60
2023-01-11T15:37:44.933Z,7.93
2023-01-11T15:40:18.263Z,6.70
2023-01-11T15:42:58.006Z,10.00
2023-01-11T15:46:04.003Z,9.60
2023-01-11T15:49:08.854Z,9.27
2023-01-11T15:52:14.121Z,10.80
2023-01-11T15:55:00.255Z,10.85
2023-01-11T15:57:49.324Z,6.45
2023-01-11T16:00:44.419Z,8.82
2023-01-11T16:03:31.835Z,24.63
2023-01-11T16:06:15.780Z,12.73
2023-01-11T16:09:09.566Z,11.95
2023-01-11T16:11:42.272Z,12.80
2023-01-11T16:14:24.968Z,11.80
2023-01-11T16:16:55.848Z,10.48
2023-01-11T16:19:28.945Z,12.10
2023-01-11T16:21:59.333Z,7.57
2023-01-11T16:24:29.646Z,10.30
2023-01-11T16:27:00.494Z,9.60
2023-01-11T16:29:37.021Z,9.77
2023-01-11T16:32:07.333Z,10.30
2023-01-11T16:34:43.998Z,11.55
2023-01-11T16:37:26.626Z,12.73
2023-01-11T16:40:18.283Z,11.32
2023-01-11T16:42:57.649Z,6.10
2023-01-11T16:45:42.839Z,7.87
2023-01-11T16:48:17.938Z,11.98
2023-01-11T16:51:07.360Z,9.63
2023-01-11T16:53:37.742Z,4.72
2023-01-11T16:56:06.993Z,9.88
2023-01-11T16:58:37.548Z,7.30
2023-01-11T17:01:09.077Z,7.75
2023-01-11T17:03:52.059Z,6.00
2023-01-11T17:06:25.307Z,2.92
2023-01-11T17:08:55.050Z,11.85
2023-01-11T17:11:28.405Z,8.90
2023-01-11T17:14:14.670Z,9.80
2023-01-11T17:16:47.571Z,12.57
2023-01-11T17:19:18.537Z,10.88
2023-01-11T17:21:52.728Z,9.70
2023-01-11T17:24:27.065Z,12.37
2023-01-11T17:27:02.718Z,6.20
2023-01-11T17:29:38.396Z,12.27
2023-01-11T17:32:13.510Z,8.32
2023-01-11T17:34:42.730Z,6.20
2023-01-11T17:37:14.879Z,9.73
2023-01-11T17:39:48.681Z,7.65
2023-01-11T17:42:35.499Z,9.73
2023-01-11T17:45:24.168Z,7.57
2023-01-11T17:47:53.886Z,8.15
2023-01-11T17:50:31.057Z,11.00
2023-01-11T17:53:22.543Z,13.43
2023-01-11T17:55:52.866Z,12.55
2023-01-11T17:58:34.013Z,13.23
2023-01-11T18:01:05.416Z,12.63
2023-01-11T18:03:45.734Z,17.87
2023-01-11T18:06:21.293Z,18.58
2023-01-11T18:08:52.239Z,16.13
2023-01-11T18:11:25.746Z,11.65
2023-01-11T18:13:57.021Z,15.07
2023-01-11T18:16:25.002Z,18.27
2023-01-11T18:18:53.982Z,19.80
2023-01-11T18:21:40.892Z,20.75
2023-01-11T18:24:11.223Z,12.95
2023-01-11T18:26:41.412Z,12.98
2023-01-11T18:29:20.896Z,16.80
2023-01-11T18:31:48.552Z,12.85
2023-01-11T18:34:16.151Z,19.15
2023-01-11T18:36:43.808Z,8.80
2023-01-11T18:39:12.299Z,11.80
2023-01-11T18:41:58.616Z,16.30
2023-01-11T18:44:28.490Z,19.02
2023-01-11T18:46:56.231Z,12.13
2023-01-11T18:49:23.756Z,16.83
2023-01-11T18:51:51.466Z,18.67
2023-01-11T18:54:19.191Z,22.53
2023-01-11T18:56:46.822Z,9.32
2023-01-11T18:59:14.486Z,17.55
2023-01-11T19:01:54.481Z,15.00
2023-01-11T19:04:26.798Z,13.05
2023-01-11T19:06:54.787Z,16.03
2023-01-11T19:09:22.376Z,19.50
2023-01-11T19:11:50.029Z,11.80
2023-01-11T19:14:17.673Z,13.93
2023-01-11T19:16:45.193Z,23.98
2023-01-11T19:19:12.948Z,23.90
2023-01-11T19:21:40.591Z,16.58
2023-01-11T19:24:08.321Z,17.55
2023-01-11T19:26:35.940Z,17.17
2023-01-11T19:29:04.082Z,17.67
2023-01-11T19:31:32.177Z,15.20
2023-01-11T19:34:00.208Z,9.68
2023-01-11T19:36:31.997Z,16.00
2023-01-11T19:38:59.613Z,9.05
2023-01-11T19:41:27.621Z,13.52
2023-01-11T19:43:55.335Z,11.73
2023-01-11T19:46:31.665Z,19.05
2023-01-11T19:48:59.739Z,20.83
2023-01-11T19:51:27.300Z,9.82
2023-01-11T19:53:54.929Z,18.08
2023-01-11T19:56:22.588Z,18.17
2023-01-11T19:58:50.234Z,20.02
2023-01-11T20:01:17.819Z,20.25
2023-01-11T20:03:45.499Z,19.58
2023-01-11T20:06:14.617Z,17.13
2023-01-11T20:08:42.779Z,17.80
2023-01-11T20:11:15.018Z,21.75
2023-01-11T20:13:43.283Z,13.57
2023-01-11T20:16:13.490Z,16.77
2023-01-11T20:18:42.526Z,19.55
2023-01-11T20:21:11.011Z,20.60
2023-01-11T20:23:38.655Z,21.98
2023-01-11T20:26:07.736Z,18.00
2023-01-11T20:28:35.355Z,12.50
2023-01-11T20:31:06.636Z,17.48
2023-01-11T20:33:34.530Z,14.17
2023-01-11T20:36:10.817Z,17.60
2023-01-11T20:38:38.455Z,20.77
2023-01-11T20:41:38.232Z,14.52
2023-01-11T20:44:07.025Z,16.67
2023-01-11T20:46:35.659Z,19.07
2023-01-11T20:49:04.631Z,18.20
2023-01-11T20:51:32.390Z,12.38
2023-01-11T20:54:00.453Z,15.85
2023-01-11T20:56:28.232Z,12.75
2023-01-11T20:58:55.935Z,19.93
2023-01-11T21:01:30.298Z,26.52
2023-01-11T21:04:00.475Z,15.43
2023-01-11T21:06:29.904Z,15.93
2023-01-11T21:08:59.384Z,15.95
2023-01-11T21:11:28.823Z,35.07
2023-01-11T21:16:25.450Z,21.88
2023-01-11T21:19:01.790Z,24.60
2023-01-11T21:21:32.025Z,26.20
2023-01-11T21:24:03.097Z,13.40
2023-01-11T21:26:32.076Z,16.10
2023-01-11T21:29:01.289Z,20.27
2023-01-11T21:31:31.473Z,22.77
2023-01-11T21:33:59.780Z,16.65
2023-01-11T21:36:29.644Z,22.07
2023-01-11T21:38:58.800Z,17.13
2023-01-11T21:41:48.202Z,19.42
2023-01-11T21:44:17.700Z,26.20
2023-01-11T21:46:46.205Z,22.73
2023-01-11T21:49:14.665Z,18.90
2023-01-11T21:51:42.940Z,20.23
2023-01-11T21:54:14.344Z,26.10
2023-01-11T21:56:42.159Z,20.38
2023-01-11T21:59:09.904Z,17.50
2023-01-11T22:01:39.798Z,18.97
2023-01-11T22:04:09.465Z,20.92
2023-01-11T22:06:38.816Z,23.48
2023-01-11T22:09:08.832Z,23.45
2023-01-11T22:11:36.479Z,19.08
2023-01-11T22:14:04.994Z,17.60
2023-01-11T22:16:33.129Z,21.25
2023-01-11T22:19:02.130Z,21.35
2023-01-11T22:21:33.705Z,23.85
2023-01-11T22:24:07.792Z,19.38
2023-01-11T22:26:38.940Z,34.90
2023-01-11T22:29:16.994Z,11.95
2023-01-11T22:31:55.442Z,19.20
2023-01-11T22:34:23.590Z,23.25
2023-01-11T22:36:51.282Z,16.23
2023-01-11T22:39:21.712Z,18.37
2023-01-11T22:41:49.652Z,21.77
2023-01-11T22:44:17.483Z,22.33
2023-01-11T22:46:45.139Z,33.13
2023-01-11T22:49:13.501Z,26.33
2023-01-11T22:51:42.597Z,20.53
2023-01-11T22:54:11.326Z,31.83
2023-01-11T22:56:39.114Z,26.15
2023-01-11T22:59:07.335Z,25.35
2023-01-11T23:01:37.466Z,18.92
2023-01-11T23:04:07.082Z,23.63
2023-01-11T23:06:39.969Z,19.77
2023-01-11T23:09:09.639Z,23.42
2023-01-11T23:11:57.502Z,21.70
2023-01-11T23:14:31.125Z,28.80
2023-01-11T23:17:09.636Z,24.87
2023-01-11T23:19:40.548Z,24.92
2023-01-11T23:22:10.126Z,26.95
2023-01-11T23:24:38.129Z,19.80
2023-01-11T23:27:06.101Z,17.83
2023-01-11T23:29:33.910Z,26.77
2023-01-11T23:32:01.555Z,29.55
2023-01-11T23:34:29.242Z,30.95
2023-01-11T23:36:56.832Z,22.15
2023-01-11T23:39:24.442Z,28.10
2023-01-11T23:42:10.519Z,18.83
2023-01-11T23:44:38.269Z,21.20
2023-01-11T23:47:25.299Z,20.05
2023-01-11T23:49:58.291Z,26.33
2023-01-11T23:52:28.306Z,18.70
2023-01-11T23:54:56.663Z,23.30
2023-01-11T23:57:25.601Z,16.80
2023-01-11T23:59:53.384Z,25.20
